»·PEaware :: N2MZ KSAN-KPSP

N2MZ :: KSAN-KPSP

FLIGHT INFORMATION

Flight Status: Arrived
Operator: Privately registered:
United States
More flights under this callsign
Pilot: Mike Z. (25595)
Aircraft: CESSNA 172 SKYHAWK
(C172)
More flights by this aircraft type
Origin: KSAN San Diego Intl-Lindbergh
United States
Destination: KPSP Palm Springs Intl
United States
More flights between these airports :: More routes between these airports
Route: +JLI V208 TRM
File this flight plan on PilotEdge
Remarks:
Altitude:
(Current/Filed)
9,000ft
Speed:
(Current/Filed)
115kts
Departed: 17-Oct-19 09:02 PM
Arrived: 17-Oct-19 10:06 PM
Distance/Time
Traveled:
74nm/1:03
Distance/Time
To Go:
Arrived

Flight Plot

Page will automatically refresh every two minutes.


Map Options




Map Legend


Flown Route
Filed Route
Departure Airport
Arrival Airport
Navaid (VOR, NDB)
Fix

Horizontal Profiles

Position Reports

Time Latitude Longitude Heading Altitude Ground
Speed
17-Oct-19 20:41 32.732419 -117.176642 195 22ft 0kts
17-Oct-19 20:42 32.732419 -117.176642 195 22ft 0kts
17-Oct-19 20:43 32.732419 -117.176642 195 22ft 0kts
17-Oct-19 20:44 32.732419 -117.176642 195 22ft 0kts
17-Oct-19 20:45 32.732419 -117.176642 195 22ft 0kts
17-Oct-19 20:46 32.732419 -117.176642 195 22ft 0kts
17-Oct-19 20:47 32.731929 -117.176778 191 20ft 8kts
17-Oct-19 20:48 32.731231 -117.176929 191 20ft 0kts
17-Oct-19 20:49 32.731041 -117.177028 226 20ft 3kts
17-Oct-19 20:50 32.731211 -117.177234 7 20ft 8kts
17-Oct-19 20:51 32.731259 -117.177226 11 20ft 0kts
17-Oct-19 20:52 32.732420 -117.176641 194 22ft 0kts
17-Oct-19 20:53 32.732164 -117.176712 323 21ft 0kts
17-Oct-19 20:54 32.732164 -117.176712 323 21ft 0kts
17-Oct-19 20:55 32.732391 -117.180084 114 18ft 6kts
17-Oct-19 20:56 32.730794 -117.175087 190 22ft 0kts
17-Oct-19 20:57 32.730904 -117.175527 130 21ft 0kts
17-Oct-19 20:58 32.730904 -117.175527 131 21ft 0kts
17-Oct-19 20:59 32.730904 -117.175527 131 21ft 0kts
17-Oct-19 21:00 32.730235 -117.175971 283 20ft 17kts
17-Oct-19 21:01 32.736780 -117.196274 298 422ft 84kts
17-Oct-19 21:02 32.755504 -117.212613 322 1146ft 83kts
17-Oct-19 21:03 32.774632 -117.228961 323 1795ft 86kts
17-Oct-19 21:04 32.792675 -117.243086 321 2393ft 83kts
17-Oct-19 21:05 32.811908 -117.235205 55 2928ft 89kts
17-Oct-19 21:06 32.825613 -117.214566 61 3428ft 89kts
17-Oct-19 21:07 32.833697 -117.201389 53 3723ft 89kts
17-Oct-19 21:08 32.841164 -117.190717 52 3951ft 91kts
17-Oct-19 21:09 32.847872 -117.180007 60 4171ft 93kts
17-Oct-19 21:10 32.853753 -117.166497 67 4461ft 88kts
17-Oct-19 21:11 32.860726 -117.151012 61 4816ft 76kts
17-Oct-19 21:12 32.866362 -117.139974 62 4949ft 81kts
17-Oct-19 21:13 32.871495 -117.129189 63 5105ft 85kts
17-Oct-19 21:14 32.876059 -117.118303 67 5256ft 90kts
17-Oct-19 21:15 32.881175 -117.105934 66 5445ft 93kts
17-Oct-19 21:16 32.887593 -117.091143 65 5698ft 93kts
17-Oct-19 21:17 32.893688 -117.078031 62 5909ft 94kts
17-Oct-19 21:18 32.900024 -117.065171 61 6104ft 96kts
17-Oct-19 21:19 32.912335 -117.040377 61 6471ft 99kts
17-Oct-19 21:20 32.926773 -117.011389 60 6887ft 100kts
17-Oct-19 21:21 32.942102 -116.980714 58 7704ft 84kts
17-Oct-19 21:22 32.953729 -116.957374 58 8121ft 80kts
17-Oct-19 21:23 32.964860 -116.935295 58 8502ft 73kts
17-Oct-19 21:24 32.976337 -116.912369 58 8746ft 85kts
17-Oct-19 21:25 32.988388 -116.888178 59 9080ft 87kts
17-Oct-19 21:26 33.003103 -116.858596 58 9083ft 111kts
17-Oct-19 21:27 33.019461 -116.825779 59 9082ft 116kts
17-Oct-19 21:28 33.036177 -116.792357 58 9082ft 117kts
17-Oct-19 21:29 33.053055 -116.758484 58 9081ft 118kts
17-Oct-19 21:30 33.069811 -116.725078 58 9080ft 114kts
17-Oct-19 21:31 33.085743 -116.693195 58 9081ft 111kts
17-Oct-19 21:32 33.135881 -116.594464 59 9081ft 109kts
17-Oct-19 21:33 33.157262 -116.568066 32 9081ft 108kts
17-Oct-19 21:34 33.246870 -116.494708 35 9081ft 107kts
17-Oct-19 21:35 33.269252 -116.475625 35 9259ft 97kts
17-Oct-19 21:36 33.292249 -116.456098 26 9008ft 123kts
17-Oct-19 21:37 33.328192 -116.425324 26 8980ft 121kts
17-Oct-19 21:38 33.455136 -116.316607 26 8951ft 118kts
17-Oct-19 21:39 33.481272 -116.294097 26 8951ft 113kts
17-Oct-19 21:40 33.510437 -116.268993 26 8951ft 111kts
17-Oct-19 21:41 33.544711 -116.239353 26 8952ft 110kts
17-Oct-19 21:42 33.569313 -116.217139 30 8952ft 111kts
17-Oct-19 21:43 33.593617 -116.193902 27 8952ft 110kts
17-Oct-19 21:44 33.618185 -116.171770 26 8952ft 109kts
17-Oct-19 21:45 33.640116 -116.179131 309 8754ft 99kts
17-Oct-19 21:46 33.660602 -116.203258 353 8298ft 116kts
17-Oct-19 21:47 33.662900 -116.167670 147 7560ft 159kts
17-Oct-19 21:48 33.623244 -116.151434 128 5873ft 149kts
17-Oct-19 21:49 33.601736 -116.109256 127 4563ft 147kts
17-Oct-19 21:50 33.592438 -116.068791 36 3897ft 123kts
17-Oct-19 21:51 33.604147 -116.084658 261 3921ft 101kts
17-Oct-19 21:52 33.604644 -116.115092 293 3993ft 87kts
17-Oct-19 21:53 33.619295 -116.142131 304 4142ft 94kts
17-Oct-19 21:54 33.634435 -116.172327 304 3939ft 106kts
17-Oct-19 21:55 33.701166 -116.282506 309 3768ft 108kts
17-Oct-19 21:56 33.717787 -116.312728 309 3456ft 103kts
17-Oct-19 21:58 33.733916 -116.341730 302 3206ft 106kts
17-Oct-19 21:59 33.749997 -116.372382 304 2957ft 106kts
17-Oct-19 22:00 33.764616 -116.399366 306 2799ft 103kts
17-Oct-19 22:01 33.780899 -116.427083 302 2307ft 85kts
17-Oct-19 22:02 33.790711 -116.450072 300 1810ft 78kts
17-Oct-19 22:03 33.796987 -116.471005 299 1187ft 66kts
17-Oct-19 22:04 33.808647 -116.485825 317 827ft 62kts
17-Oct-19 22:05 33.822398 -116.498365 324 495ft 71kts
17-Oct-19 22:06 33.829761 -116.503887 140 418ft 16kts
17-Oct-19 22:07 33.826757 -116.500499 183 406ft 0kts
17-Oct-19 22:08 33.826763 -116.500498 225 406ft 0kts

Navigation Log

Ident Type
Flight plan parsing failed, navigation log unavailable